Terminal Aerodrome Forecast
Issued by NWS Green Bay, WI

Home | Current Version | Previous Version | Graphics & Text | Print | Product List | Glossary On
Versions: 1 2 3 4 5 6 7 8 9 10 11 12 13 14 15
000
FTUS43 KGRB 152006 AAB
TAFGRB
TAF AMD
KGRB 152006Z 1520/1618 29010G17KT P6SM BKN250
     FM152300 34010KT P6SM SCT035 BKN250
     FM160200 34012G17KT P6SM BKN035 PROB30 1605/1608 -SHSN
     FM161000 32010G17KT P6SM SKC=

USA.gov is the U.S. government's official web portal to all federal, state and local government web resources and services.